Página principal
METAR-TAF:

METAR-TAF

Aeroportos :

Georgetown, Ascensão

latitude: 07-58S, longitude: 014-24W, altura: 86 m

METAR: em falta

Hora: 03:45 (03:45 UTC)

Previsão

O boletim foi feito há 17 horas e 25 minutos, às 10:20 UTC
Previsão válida de 12 às 12 UTC a 13 às 06 UTC
Vento 15 kt de sudeste
Visibilidade 10 km ou mais
Poucas nuvensa uma altura de 2000 ft
Nuvens dispersasa uma altura de 4500 ft
Probabilidade 30% :
Temporariamente
de 12 às 12 UTC a 13 às 06 UTC
Visibilidade: 7000 m
Nuvens dispersasa uma altura de 1400 ft
aguaceiros fracos de chuva

TAF: FHAW 121020Z 1212/1306 13015KT 9999 FEW020 SCT045 PROB30 TEMPO 1212/1306 7000 -SHRA SCT014

Observações e previsões do tempo de mais de 4000 aeroportos (mensagens METAR e TAF).

As estações disponíveis são os pontos amarelos e vermelhos sobre o mapa.

Mova o rato sobre o mapa para ver o nome da estação.

Depois clique no ponto para visualizar as observações e previsões meteorológicas.

Para alterar o mapa : clique nos botões verdes com uma cruz preta para aumentar o zoom; no botão verde com uma pitada de zoom; ou nas setas verdes para mapas adjacentes.


METAR-TAF: